ADDS METAR Data INFO
IDs: Format: Raw Decoded Include TAF

Data at: 0858 UTC 19 Jun 2018

KFMM 190835Z AUTO 09007KT 10SM VCTS SCT008 OVC050 14/14 A3010 RMK AO2 LTG DSNT W AND NW T01420135
KFMM 190815Z AUTO 05007KT 10SM BKN008 OVC048 14/13 A3008 RMK AO2 LTG DSNT W THRU N T01410134
KFMM 190755Z AUTO 05012KT 10SM BKN008 OVC048 14/14 A3007 RMK AO2 LTG DSNT NW THRU NE T01430135
KFMM 190735Z AUTO 05008KT 10SM TS BKN008 BKN044 OVC060 15/14 A3009 RMK AO2 LTG DSNT NW THRU NE T01450136
KFMM 190715Z AUTO 02004KT 10SM TS BKN008 OVC044 15/14 A3010 RMK AO2 LTG DSNT ALQS T01450137
KFMM 190655Z AUTO 05012KT 10SM TS OVC008 15/14 A3009 RMK AO2 LTG DSNT W THRU NE T01460138
KFMM 190635Z AUTO 05012G18KT 10SM -VCTSRA BKN010 OVC060 15/14 A3008 RMK AO2 LTG DSNT W THRU NE T01450137
KFMM 190615Z AUTO 26006KT 10SM TS BKN060 BKN120 15/14 A3010 RMK AO2 LTG DSNT W THRU NE T01470140
KFMM 190555Z AUTO 07008KT 10SM VCTS SCT060 SCT110 15/14 A3005 RMK AO2 LTG DSNT ALQS T01450136 10269 20136 402740123
KFMM 190535Z AUTO 07008KT 10SM -TSRA SCT012 SCT025 BKN110 14/13 A3005 RMK AO2 LTG DSNT ALQS T01410133
KFMM 190515Z AUTO 05018G23KT 3SM +TSRA SCT011 BKN033 OVC065 15/14 A3004 RMK AO2 LTG DSNT ALQS T01460137
KFMM 190455Z AUTO 25020G26KT 10SM TS SCT009 BKN055 BKN080 14/13 A3011 RMK AO2 LTG DSNT ALQS T01410132
KFMM 190435Z AUTO 08017G20KT 5SM -VCTSRA SCT010 SCT065 BKN070 14/13 A3001 RMK AO2 LTG DSNT ALQS T01420134
KFMM 190415Z AUTO 07008KT 10SM -TSRA SCT012 SCT055 BKN090 14/14 A3006 RMK AO2 LTG DSNT ALQS T01430135
KFMM 190355Z AUTO 01014G19KT 2 1/2SM TSRA BKN011 BKN032 OVC043 15/14 A3004 RMK AO2 VIS 1 1/2V5 LTG DSNT ALQS T01450137
KFMM 190335Z AUTO 03015G27KT 4SM +TSRA SCT008 SCT031 BKN039 14/13 A3004 RMK AO2 LTG DSNT ALQS T01370127
KFMM 190315Z AUTO 34046G62KT 1 1/2SM TS SCT012 BKN042 OVC090 16/14 A3008 RMK AO2 LTG DSNT ALQS T01570141
KFMM 190255Z AUTO 03034G39KT 7SM TSRA BKN038 BKN044 OVC095 19/15 A2993 RMK AO2 LTG DSNT ALQS T01860147
KFMM 190235Z AUTO 03022G28KT 10SM TS SCT038 OVC110 21/14 A2997 RMK AO2 LTG DSNT ALQS T02090143
KFMM 190215Z AUTO 04014G20KT 10SM -TSRA BKN110 22/14 A2998 RMK AO2 LTG DSNT SW THRU N T02150143
KFMM 190155Z AUTO 04013KT 10SM VCTS CLR 22/14 A2999 RMK AO2 LTG DSNT W AND NW T02160142
KFMM 190135Z AUTO 07011KT 10SM CLR 22/14 A2998 RMK AO2 LTG DSNT W THRU N T02190143
KFMM 190115Z AUTO 09013KT 10SM CLR 23/14 A2997 RMK AO2 LTG DSNT W AND NW T02250141
KFMM 190055Z AUTO 09015G20KT 10SM CLR 23/14 A2996 RMK AO2 LTG DSNT W AND NW T02340141
KFMM 190035Z AUTO 10013G19KT 10SM CLR 26/14 A2997 RMK AO2 LTG DSNT W T02590136
KFMM 190015Z AUTO 09014G20KT 10SM CLR 26/13 A2997 RMK AO2 LTG DSNT W T02630134
KFMM 182355Z AUTO 10013G19KT 10SM CLR 27/13 A2997 RMK AO2 T02700129 10274 20201
KFMM 182335Z AUTO 10013G17KT 10SM CLR 27/13 A2998 RMK AO2 LTG DSNT W T02720131
KFMM 182315Z AUTO 08011G16KT 10SM CLR 27/13 A2998 RMK AO2 T02720130
KFMM 182255Z AUTO 09013G17KT 10SM CLR 27/13 A2999 RMK AO2 T02700130
KFMM 182235Z AUTO 09011KT 10SM CLR 27/13 A3000 RMK AO2 T02680128
KFMM 182215Z AUTO 09011G15KT 10SM CLR 26/13 A3001 RMK AO2 T02610132
KFMM 182155Z AUTO 09011KT 10SM CLR 26/13 A3002 RMK AO2 T02570129
KFMM 182135Z AUTO 11006KT 10SM CLR 25/13 A3002 RMK AO2 T02500130
KFMM 182115Z AUTO 10007KT 10SM CLR 24/13 A3003 RMK AO2 T02430127
KFMM 182055Z AUTO 15005KT 10SM CLR 24/13 A3004 RMK AO2 T02410127
KFMM 182035Z AUTO 15007KT 10SM CLR 24/13 A3004 RMK AO2 T02390127
KFMM 182015Z AUTO 13006KT 10SM CLR 24/13 A3005 RMK AO2 T02350126
KFMM 181955Z AUTO 12006KT 10SM CLR 23/13 A3005 RMK AO2 T02340128
KFMM 181935Z AUTO 16003KT 10SM SCT025 23/12 A3006 RMK AO2 T02290124
KFMM 181915Z AUTO 16004KT 10SM SCT025 22/12 A3006 RMK AO2 T02240122
KFMM 181855Z AUTO 20005KT 10SM CLR 22/12 A3007 RMK AO2 T02200120
KFMM 181835Z AUTO 15005KT 10SM SCT024 22/12 A3007 RMK AO2 T02190120
KFMM 181815Z AUTO 12003KT 10SM BKN024 20/11 A3008 RMK AO2 T02010113
KFMM 181755Z AUTO 00000KT 10SM OVC022 20/12 A3009 RMK AO2 T02000117 10200 20123
KFMM 181735Z AUTO 00000KT 10SM OVC020 19/12 A3009 RMK AO2 T01910115
KFMM 181715Z AUTO 26003KT 10SM OVC020 19/12 A3010 RMK AO2 T01860115
KFMM 181655Z AUTO 00000KT 10SM OVC018 18/12 A3010 RMK AO2 T01830116
KFMM 181635Z AUTO 00000KT 10SM OVC016 18/12 A3010 RMK AO2 T01760116
KFMM 181615Z AUTO 27003KT 10SM OVC014 17/12 A3010 RMK AO2 T01710118
KFMM 181555Z AUTO 28004KT 10SM OVC014 16/12 A3011 RMK AO2 T01620115
KFMM 181535Z AUTO 01003KT 10SM OVC012 16/12 A3011 RMK AO2 T01620118
KFMM 181515Z AUTO 05003KT 10SM OVC012 16/12 A3011 RMK AO2 LTG DSNT W T01640120
KFMM 181455Z AUTO 03003KT 10SM BKN012 OVC020 16/12 A3011 RMK AO2 T01550120
KFMM 181435Z AUTO 03003KT 10SM BKN008 OVC015 15/12 A3011 RMK AO2 T01510121
KFMM 181415Z AUTO 02005KT 10SM BKN010 BKN013 OVC025 14/13 A3010 RMK AO2 T01440125
KFMM 181355Z AUTO 03005KT 10SM BKN008 OVC015 14/12 A3011 RMK AO2 T01350120
KFMM 181335Z AUTO 01005KT 10SM BKN008 OVC012 13/12 A3011 RMK AO2 T01300116
KFMM 181315Z AUTO 03008KT 10SM OVC008 13/12 A3010 RMK AO2 T01300117
KFMM 181255Z AUTO 04007KT 10SM OVC008 13/12 A3009 RMK AO2 T01270115
KFMM 181235Z AUTO 02006KT 10SM BKN008 OVC011 13/12 A3010 RMK AO2 T01250115
KFMM 181215Z AUTO 02006KT 10SM BKN008 OVC011 13/12 A3009 RMK AO2 T01250115
KFMM 181155Z AUTO 01007KT 5SM BR OVC006 12/11 A3009 RMK AO2 T01240113 10131 20123
KFMM 181135Z AUTO 02006KT 7SM OVC006 13/11 A3009 RMK AO2 T01250113
KFMM 181115Z AUTO 02007KT 10SM OVC006 12/11 A3009 RMK AO2 T01240112
KFMM 181055Z AUTO 36008KT 7SM OVC006 13/11 A3008 RMK AO2 T01250113
KFMM 181035Z AUTO 34006KT 3SM BR OVC006 12/11 A3008 RMK AO2 T01240113
KFMM 181015Z AUTO 35006KT 10SM OVC008 13/12 A3008 RMK AO2 T01260115
KFMM 180955Z AUTO 36006KT 10SM OVC010 13/12 A3007 RMK AO2 T01260115
KFMM 180935Z AUTO 36004KT 10SM BKN006 OVC010 13/12 A3006 RMK AO2 T01260115
KFMM 180915Z AUTO 36004KT 10SM BKN006 OVC016 13/12 A3006 RMK AO2 T01260116
KFMM 180855Z AUTO 01007KT 10SM OVC006 13/12 A3006 RMK AO2 T01250115
KFMM 180835Z AUTO 01007KT 10SM OVC006 13/12 A3006 RMK AO2 T01260116
KFMM 180815Z AUTO 01008KT 10SM DZ BKN006 BKN015 OVC110 13/12 A3004 RMK AO2 T01300120
KFMM 180755Z AUTO 04007KT 10SM RA SCT016 SCT041 OVC110 13/12 A3006 RMK AO2 T01290119
KFMM 180735Z AUTO 05008KT 10SM -RA SCT017 BKN043 OVC100 13/12 A3006 RMK AO2 T01300120
KFMM 180715Z AUTO 04006KT 10SM -RA SCT008 BKN032 OVC040 13/12 A3007 RMK AO2 T01300118
KFMM 180655Z AUTO 04005KT 7SM RA BKN008 OVC015 13/12 A3008 RMK AO2 T01300118
KFMM 180635Z AUTO 05003KT 3SM RA OVC008 13/12 A3009 RMK AO2 LTG DSNT NE T01300118
KFMM 180615Z AUTO 00000KT 10SM BKN008 OVC013 13/12 A3009 RMK AO2 T01300119
KFMM 180555Z AUTO 03007KT 10SM RA BKN006 BKN023 OVC033 13/12 A3008 RMK AO2 T01330121 10172 20133 402570125
KFMM 180535Z AUTO 02004KT 7SM -RA SCT008 BKN024 OVC090 13/12 A3008 RMK AO2 T01340120
KFMM 180515Z AUTO 02007KT 10SM -RA SCT010 BKN080 OVC100 14/12 A3007 RMK AO2 LTG DSNT NW T01360120
KFMM 180455Z AUTO 03008KT 10SM BKN008 BKN021 OVC080 14/12 A3007 RMK AO2 T01360118
KFMM 180435Z AUTO 03011KT 10SM OVC008 14/12 A3007 RMK AO2 T01370120
KFMM 180415Z AUTO 03014KT 10SM OVC008 14/12 A3006 RMK AO2 T01380120
KFMM 180355Z AUTO 03014G17KT 10SM BKN008 OVC016 14/12 A3007 RMK AO2 T01400121
KFMM 180335Z AUTO 02013G19KT 10SM OVC008 14/12 A3006 RMK AO2 T01400122
KFMM 180315Z AUTO 02016G21KT 10SM BKN010 BKN025 OVC090 14/12 A3003 RMK AO2 T01410122
KFMM 180255Z AUTO 04014G27KT 10SM SCT025 BKN095 OVC120 14/12 A3003 RMK AO2 LTG DSNT NE T01410122
KFMM 180235Z AUTO 05018G22KT 10SM BKN095 15/13 A3002 RMK AO2 T01450125
KFMM 180215Z AUTO 03014G21KT 10SM SCT095 15/13 A2999 RMK AO2 T01460125
KFMM 180155Z AUTO 03015G19KT 10SM CLR 15/13 A2998 RMK AO2 T01500129
KFMM 180135Z AUTO 01016G19KT 10SM SCT095 BKN110 15/13 A2998 RMK AO2 T01510130
KFMM 180115Z AUTO 36018G24KT 10SM SCT018 SCT029 BKN095 15/13 A2996 RMK AO2 T01510131
KFMM 180055Z AUTO 01021G28KT 5SM RA SCT023 BKN045 OVC100 15/13 A2993 RMK AO2 LTG DSNT W T01540133
KFMM 180035Z AUTO 36014G19KT 10SM -RA SCT044 BKN080 OVC100 16/13 A3001 RMK AO2 T01590128
KFMM 180015Z AUTO 36017G21KT 10SM RA SCT044 BKN095 OVC110 17/13 A3000 RMK AO2 LTG DSNT E T01660125
KFMM 172355Z AUTO 36018KT 10SM BKN120 17/13 A2999 RMK AO2 T01730126 10257 20173
KFMM 172335Z AUTO 01017G21KT 10SM -RA SCT021 SCT036 BKN110 18/14 A2998 RMK AO2 LTG DSNT W T01760136
KFMM 172315Z AUTO 01017G24KT 10SM -RA SCT021 SCT035 OVC110 18/14 A2996 RMK AO2 LTG DSNT SW T01770135
KFMM 172255Z AUTO 01018KT 10SM -RA BKN110 19/13 A2996 RMK AO2 LTG DSNT W T01850127
KFMM 172235Z AUTO 01019G23KT 10SM SCT120 19/13 A2994 RMK AO2 LTG DSNT W T01910126
KFMM 172215Z AUTO 01018G21KT 10SM SCT037 SCT047 SCT055 20/13 A2995 RMK AO2 LTG DSNT SW T01960128
KFMM 172155Z AUTO 36017G23KT 10SM SCT027 BKN039 OVC055 21/13 A2995 RMK AO2 LTG DSNT SW T02080132
KFMM 172135Z AUTO 01018G23KT 10SM SCT027 BKN032 OVC039 22/14 A2995 RMK AO2 T02220136
KFMM 172115Z AUTO 35018G23KT 10SM SCT027 BKN035 BKN049 24/14 A2994 RMK AO2 T02420141